AAR244 PANC-KORD
Flight info
| Callsign | AAR244 |
|---|---|
| Flight time | 5h 0m |
| Altitude | 35000 |
| Route | DCT JOH J501 YAK DCT DEEJA DCT MITOM DCT 58N130W DCT YQU DCT YEGGA DCT ITREK DCT ISN DCT ABR DCT HSTIN Q156 ZZIPR FYTTE7 |
| Aircraft | B744/H-SDE1E2E3FGHIJ3J5M1P1RWXYZ/LB1D1 |
Departure
| Time | 2026-05-05 10:08 |
|---|---|
| Airport | Ted Stevens Anchorage International Airport (PANC) |
Arrival
| Time | 2026-05-05 15:08 |
|---|---|
| Airport | Chicago O'Hare International Airport (KORD) |
| Time | Latitude | Longitude | Altitude | Speed | Heading |
|---|---|---|---|---|---|
| 2026-05-05 09:52 | 61.17518 | -149.99152 | 165 ft | 0 kts | 70° |
| 2026-05-05 10:04 | 61.17523 | -149.99030 | 165 ft | 15 kts | 114° |
| 2026-05-05 10:04 | 61.17435 | -149.98930 | 165 ft | 14 kts | 160° |
| 2026-05-05 10:04 | 61.17345 | -149.98862 | 165 ft | 13 kts | 160° |
| 2026-05-05 10:05 | 61.17259 | -149.98798 | 165 ft | 14 kts | 160° |
| 2026-05-05 10:05 | 61.17151 | -149.98730 | 165 ft | 18 kts | 195° |
| 2026-05-05 10:05 | 61.17121 | -149.98951 | 165 ft | 17 kts | 272° |
| 2026-05-05 10:05 | 61.17124 | -149.99192 | 165 ft | 16 kts | 270° |
| 2026-05-05 10:06 | 61.17124 | -149.99420 | 165 ft | 15 kts | 269° |
| 2026-05-05 10:06 | 61.17124 | -149.99634 | 165 ft | 14 kts | 269° |
| 2026-05-05 10:06 | 61.17133 | -149.99830 | 165 ft | 13 kts | 306° |
| 2026-05-05 10:06 | 61.17214 | -149.99906 | 165 ft | 13 kts | 346° |
| 2026-05-05 10:07 | 61.17397 | -150.00010 | 165 ft | 49 kts | 344° |
| 2026-05-05 10:07 | 61.17953 | -150.00324 | 165 ft | 117 kts | 345° |
| 2026-05-05 10:07 | 61.18945 | -150.00875 | 168 ft | 176 kts | 345° |
| 2026-05-05 10:07 | 61.20183 | -150.01565 | 671 ft | 184 kts | 345° |
| 2026-05-05 10:08 | 61.21470 | -150.01878 | 1414 ft | 191 kts | 9° |
| 2026-05-05 10:08 | 61.22609 | -150.00581 | 2196 ft | 190 kts | 45° |
| 2026-05-05 10:08 | 61.23127 | -149.98101 | 2899 ft | 191 kts | 81° |
| 2026-05-05 10:08 | 61.22941 | -149.95388 | 3630 ft | 192 kts | 101° |
| 2026-05-05 10:09 | 61.22479 | -149.92699 | 4136 ft | 205 kts | 109° |
| 2026-05-05 10:09 | 61.21882 | -149.89903 | 4367 ft | 225 kts | 113° |
| 2026-05-05 10:09 | 61.21159 | -149.86834 | 4572 ft | 249 kts | 116° |
| 2026-05-05 10:09 | 61.20350 | -149.83540 | 5099 ft | 259 kts | 116° |
| 2026-05-05 10:10 | 61.19516 | -149.80174 | 5776 ft | 265 kts | 117° |
| 2026-05-05 10:10 | 61.18674 | -149.76761 | 6502 ft | 268 kts | 117° |
| 2026-05-05 10:10 | 61.17826 | -149.73314 | 7262 ft | 269 kts | 117° |
| 2026-05-05 10:10 | 61.16976 | -149.69852 | 7982 ft | 271 kts | 117° |
| 2026-05-05 10:11 | 61.16121 | -149.66363 | 8720 ft | 272 kts | 117° |
| 2026-05-05 10:11 | 61.15262 | -149.62840 | 9396 ft | 276 kts | 117° |
| 2026-05-05 10:11 | 61.14398 | -149.59286 | 10114 ft | 278 kts | 117° |
| 2026-05-05 10:11 | 61.13506 | -149.55606 | 10507 ft | 294 kts | 117° |
| 2026-05-05 10:12 | 61.12562 | -149.51705 | 10793 ft | 314 kts | 117° |
| 2026-05-05 10:12 | 61.11547 | -149.47499 | 10974 ft | 339 kts | 117° |
| 2026-05-05 10:12 | 61.10462 | -149.42996 | 11168 ft | 362 kts | 117° |
| 2026-05-05 10:12 | 61.09317 | -149.38209 | 11512 ft | 378 kts | 117° |
| 2026-05-05 10:13 | 61.08110 | -149.33307 | 12208 ft | 385 kts | 120° |
| 2026-05-05 10:13 | 61.06759 | -149.28520 | 13017 ft | 387 kts | 122° |
| 2026-05-05 10:13 | 61.05409 | -149.23654 | 13739 ft | 393 kts | 121° |
| 2026-05-05 10:13 | 61.04127 | -149.18651 | 14502 ft | 397 kts | 119° |
| 2026-05-05 10:14 | 61.02906 | -149.13510 | 15184 ft | 402 kts | 117° |
| 2026-05-05 10:14 | 61.01732 | -149.08227 | 15866 ft | 407 kts | 116° |
| 2026-05-05 10:14 | 61.00592 | -149.02847 | 16511 ft | 412 kts | 116° |
| 2026-05-05 10:14 | 60.99462 | -148.97411 | 17183 ft | 415 kts | 116° |
| 2026-05-05 10:15 | 60.98326 | -148.91914 | 17834 ft | 418 kts | 116° |
| 2026-05-05 10:15 | 60.97184 | -148.86384 | 18440 ft | 423 kts | 116° |
| 2026-05-05 10:15 | 60.96027 | -148.80781 | 19009 ft | 427 kts | 116° |
| 2026-05-05 10:15 | 60.94860 | -148.75129 | 19559 ft | 432 kts | 116° |
| 2026-05-05 10:16 | 60.93680 | -148.69430 | 20155 ft | 435 kts | 116° |
| 2026-05-05 10:16 | 60.92490 | -148.63689 | 20705 ft | 439 kts | 116° |
| 2026-05-05 10:16 | 60.91284 | -148.57891 | 21196 ft | 444 kts | 116° |
| 2026-05-05 10:16 | 60.90067 | -148.52046 | 21751 ft | 446 kts | 116° |
| 2026-05-05 10:17 | 60.88835 | -148.46156 | 22230 ft | 451 kts | 117° |
| 2026-05-05 10:17 | 60.87592 | -148.40221 | 22754 ft | 454 kts | 117° |
| 2026-05-05 10:17 | 60.86334 | -148.34235 | 23198 ft | 459 kts | 117° |
| 2026-05-05 10:17 | 60.85064 | -148.28208 | 23703 ft | 462 kts | 117° |
| 2026-05-05 10:18 | 60.83782 | -148.22143 | 24149 ft | 466 kts | 117° |
| 2026-05-05 10:18 | 60.82489 | -148.16039 | 24611 ft | 468 kts | 117° |
| 2026-05-05 10:18 | 60.81186 | -148.09912 | 25096 ft | 470 kts | 117° |
| 2026-05-05 10:18 | 60.79877 | -148.03769 | 25523 ft | 472 kts | 117° |
| 2026-05-05 10:19 | 60.78558 | -147.97600 | 25946 ft | 474 kts | 117° |
| 2026-05-05 10:19 | 60.77245 | -147.91466 | 26716 ft | 467 kts | 118° |
| 2026-05-05 10:19 | 60.75942 | -147.85413 | 27337 ft | 464 kts | 118° |
| 2026-05-05 10:19 | 60.74640 | -147.79376 | 27789 ft | 464 kts | 119° |
| 2026-05-05 10:20 | 60.73337 | -147.73356 | 28268 ft | 462 kts | 119° |
| 2026-05-05 10:20 | 60.72054 | -147.67444 | 28794 ft | 460 kts | 120° |
| 2026-05-05 10:20 | 60.70741 | -147.61409 | 29256 ft | 458 kts | 120° |
| 2026-05-05 10:20 | 60.69447 | -147.55476 | 29707 ft | 457 kts | 120° |
| 2026-05-05 10:21 | 60.68155 | -147.49579 | 30227 ft | 453 kts | 120° |
| 2026-05-05 10:21 | 60.66863 | -147.43689 | 30513 ft | 455 kts | 120° |
| 2026-05-05 10:21 | 60.65585 | -147.37879 | 30817 ft | 456 kts | 120° |
| 2026-05-05 10:21 | 60.64263 | -147.31887 | 31122 ft | 457 kts | 121° |
| 2026-05-05 10:22 | 60.62978 | -147.26080 | 31470 ft | 457 kts | 121° |
| 2026-05-05 10:22 | 60.61668 | -147.20168 | 31697 ft | 459 kts | 121° |
| 2026-05-05 10:22 | 60.60393 | -147.14207 | 32010 ft | 459 kts | 120° |
| 2026-05-05 10:22 | 60.59101 | -147.08262 | 32315 ft | 459 kts | 121° |
| 2026-05-05 10:23 | 60.57782 | -147.02364 | 32609 ft | 458 kts | 121° |
| 2026-05-05 10:23 | 60.56452 | -146.96493 | 32925 ft | 457 kts | 121° |
| 2026-05-05 10:23 | 60.55111 | -146.90603 | 33063 ft | 461 kts | 121° |
| 2026-05-05 10:23 | 60.53763 | -146.84694 | 33315 ft | 460 kts | 122° |
| 2026-05-05 10:24 | 60.52415 | -146.78803 | 33581 ft | 460 kts | 122° |
| 2026-05-05 10:24 | 60.51069 | -146.72922 | 33836 ft | 460 kts | 122° |
| 2026-05-05 10:24 | 60.49719 | -146.67022 | 34006 ft | 461 kts | 122° |
| 2026-05-05 10:24 | 60.48445 | -146.61029 | 34192 ft | 467 kts | 117° |
| 2026-05-05 10:25 | 60.47478 | -146.54722 | 34421 ft | 470 kts | 112° |
| 2026-05-05 10:25 | 60.46682 | -146.48258 | 34582 ft | 474 kts | 110° |
| 2026-05-05 10:25 | 60.45974 | -146.41720 | 34737 ft | 476 kts | 110° |
| 2026-05-05 10:25 | 60.45268 | -146.35159 | 34792 ft | 476 kts | 110° |
| 2026-05-05 10:26 | 60.43802 | -146.22080 | 34829 ft | 476 kts | 111° |
| 2026-05-05 10:26 | 60.42303 | -146.09040 | 34850 ft | 475 kts | 111° |
| 2026-05-05 10:27 | 60.40794 | -145.96038 | 34851 ft | 475 kts | 111° |
| 2026-05-05 10:27 | 60.39438 | -145.82941 | 34850 ft | 476 kts | 110° |
| 2026-05-05 10:28 | 60.37959 | -145.69909 | 34850 ft | 475 kts | 112° |
| 2026-05-05 10:28 | 60.36392 | -145.56939 | 34850 ft | 474 kts | 112° |
| 2026-05-05 10:29 | 60.34829 | -145.44019 | 34848 ft | 474 kts | 112° |
| 2026-05-05 10:29 | 60.33265 | -145.31085 | 34848 ft | 474 kts | 112° |
| 2026-05-05 10:30 | 60.31759 | -145.18115 | 34846 ft | 475 kts | 111° |
| 2026-05-05 10:30 | 60.30176 | -145.05203 | 34845 ft | 474 kts | 112° |
| 2026-05-05 10:31 | 60.28570 | -144.92409 | 34843 ft | 473 kts | 112° |
| 2026-05-05 10:31 | 60.26950 | -144.79562 | 34841 ft | 473 kts | 113° |
| 2026-05-05 10:32 | 60.25330 | -144.66722 | 34838 ft | 473 kts | 113° |
| 2026-05-05 10:32 | 60.23677 | -144.53847 | 34836 ft | 472 kts | 114° |
| 2026-05-05 10:33 | 60.22021 | -144.41163 | 34834 ft | 472 kts | 114° |
| 2026-05-05 10:33 | 60.20340 | -144.28419 | 34825 ft | 471 kts | 114° |
| 2026-05-05 10:34 | 60.18644 | -144.15719 | 34822 ft | 470 kts | 114° |
| 2026-05-05 10:34 | 60.16939 | -144.03040 | 34820 ft | 470 kts | 114° |
| 2026-05-05 10:35 | 60.15357 | -143.90271 | 34820 ft | 471 kts | 113° |
| 2026-05-05 10:35 | 60.13722 | -143.77551 | 34820 ft | 471 kts | 114° |
| 2026-05-05 10:36 | 60.12039 | -143.64862 | 34820 ft | 471 kts | 114° |
| 2026-05-05 10:36 | 60.10332 | -143.52187 | 34820 ft | 471 kts | 114° |
| 2026-05-05 10:37 | 60.08899 | -143.41654 | 34820 ft | 471 kts | 115° |
| 2026-05-05 10:37 | 60.07161 | -143.28980 | 34823 ft | 472 kts | 115° |
| 2026-05-05 10:38 | 60.05408 | -143.16307 | 34824 ft | 473 kts | 115° |
| 2026-05-05 10:38 | 60.03641 | -143.03612 | 34829 ft | 473 kts | 115° |
| 2026-05-05 10:39 | 60.01857 | -142.90930 | 34828 ft | 474 kts | 115° |
| 2026-05-05 10:39 | 60.00058 | -142.78235 | 34832 ft | 475 kts | 116° |
| 2026-05-05 10:40 | 59.98246 | -142.65545 | 34835 ft | 475 kts | 116° |
| 2026-05-05 10:40 | 59.96418 | -142.52849 | 34839 ft | 476 kts | 116° |
| 2026-05-05 10:41 | 59.94577 | -142.40155 | 34843 ft | 476 kts | 116° |
| 2026-05-05 10:41 | 59.92726 | -142.27484 | 34848 ft | 475 kts | 116° |
| 2026-05-05 10:42 | 59.89932 | -142.08535 | 34856 ft | 475 kts | 116° |
| 2026-05-05 10:43 | 59.88065 | -141.96014 | 34862 ft | 475 kts | 117° |
| 2026-05-05 10:43 | 59.86174 | -141.83412 | 34832 ft | 475 kts | 117° |
| 2026-05-05 10:44 | 59.84273 | -141.70842 | 34833 ft | 475 kts | 117° |
| 2026-05-05 10:44 | 59.82357 | -141.58263 | 34842 ft | 476 kts | 117° |
| 2026-05-05 10:45 | 59.80427 | -141.45669 | 34851 ft | 476 kts | 117° |
| 2026-05-05 10:45 | 59.78481 | -141.33090 | 34857 ft | 477 kts | 117° |
| 2026-05-05 10:46 | 59.76519 | -141.20495 | 34866 ft | 478 kts | 117° |
| 2026-05-05 10:46 | 59.74542 | -141.07887 | 34875 ft | 479 kts | 118° |
| 2026-05-05 10:47 | 59.72549 | -140.95276 | 34883 ft | 480 kts | 118° |
| 2026-05-05 10:47 | 59.70542 | -140.82666 | 34892 ft | 480 kts | 118° |
| 2026-05-05 10:48 | 59.68521 | -140.70056 | 34900 ft | 481 kts | 118° |
| 2026-05-05 10:48 | 59.66486 | -140.57455 | 34908 ft | 481 kts | 118° |
| 2026-05-05 10:49 | 59.64440 | -140.44871 | 34915 ft | 481 kts | 118° |
| 2026-05-05 10:49 | 59.62378 | -140.32276 | 34922 ft | 482 kts | 118° |
| 2026-05-05 10:50 | 59.60349 | -140.19655 | 34927 ft | 482 kts | 118° |
| 2026-05-05 10:50 | 59.58294 | -140.07070 | 34932 ft | 481 kts | 119° |
| 2026-05-05 10:51 | 59.56169 | -139.94559 | 34936 ft | 481 kts | 119° |
| 2026-05-05 10:51 | 59.54030 | -139.82043 | 34938 ft | 482 kts | 119° |
| 2026-05-05 10:52 | 59.51906 | -139.69615 | 34940 ft | 482 kts | 119° |
| 2026-05-05 10:52 | 59.50083 | -139.56805 | 34941 ft | 490 kts | 113° |
| 2026-05-05 10:53 | 59.48623 | -139.43639 | 34939 ft | 494 kts | 112° |
| 2026-05-05 10:53 | 59.47124 | -139.30449 | 34937 ft | 495 kts | 113° |
| 2026-05-05 10:54 | 59.45580 | -139.17244 | 34935 ft | 495 kts | 113° |
| 2026-05-05 10:54 | 59.44011 | -139.04064 | 34932 ft | 496 kts | 114° |
| 2026-05-05 10:55 | 59.42505 | -138.90817 | 34939 ft | 498 kts | 112° |
| 2026-05-05 10:55 | 59.41025 | -138.77515 | 34940 ft | 499 kts | 112° |
| 2026-05-05 10:56 | 59.39476 | -138.64248 | 34940 ft | 499 kts | 113° |
| 2026-05-05 10:56 | 59.37892 | -138.50985 | 34941 ft | 499 kts | 113° |
| 2026-05-05 10:57 | 59.36290 | -138.37745 | 34941 ft | 499 kts | 113° |
| 2026-05-05 10:57 | 59.34671 | -138.24501 | 34941 ft | 500 kts | 113° |
| 2026-05-05 10:58 | 59.33037 | -138.11261 | 34942 ft | 500 kts | 113° |
| 2026-05-05 10:58 | 59.31401 | -137.98128 | 34942 ft | 500 kts | 114° |
| 2026-05-05 10:59 | 59.29738 | -137.84880 | 34944 ft | 502 kts | 113° |
| 2026-05-05 10:59 | 59.28052 | -137.71601 | 34944 ft | 503 kts | 113° |
| 2026-05-05 11:00 | 59.26351 | -137.58314 | 34944 ft | 504 kts | 113° |
| 2026-05-05 11:00 | 59.24638 | -137.45042 | 34942 ft | 504 kts | 114° |
| 2026-05-05 11:01 | 59.22906 | -137.31755 | 34941 ft | 505 kts | 114° |
| 2026-05-05 11:01 | 59.21161 | -137.18473 | 34942 ft | 506 kts | 113° |
| 2026-05-05 11:02 | 59.19398 | -137.05179 | 34942 ft | 506 kts | 114° |
| 2026-05-05 11:02 | 59.17620 | -136.91881 | 34941 ft | 507 kts | 114° |
| 2026-05-05 11:03 | 59.15826 | -136.78567 | 34943 ft | 508 kts | 114° |
| 2026-05-05 11:03 | 59.14013 | -136.65253 | 34941 ft | 508 kts | 114° |
| 2026-05-05 11:04 | 59.12185 | -136.51936 | 34928 ft | 509 kts | 114° |
| 2026-05-05 11:04 | 59.10344 | -136.38641 | 34927 ft | 509 kts | 114° |
| 2026-05-05 11:05 | 59.08500 | -136.25423 | 34927 ft | 510 kts | 114° |
| 2026-05-05 11:05 | 59.06632 | -136.12133 | 34929 ft | 509 kts | 114° |
| 2026-05-05 11:06 | 59.04746 | -135.98859 | 34926 ft | 510 kts | 114° |
| 2026-05-05 11:06 | 59.02837 | -135.85527 | 34926 ft | 514 kts | 113° |
| 2026-05-05 11:07 | 59.00912 | -135.72177 | 34925 ft | 515 kts | 113° |
| 2026-05-05 11:07 | 58.98973 | -135.58792 | 34928 ft | 515 kts | 113° |
| 2026-05-05 11:08 | 58.97089 | -135.45402 | 34928 ft | 515 kts | 114° |
| 2026-05-05 11:08 | 58.95089 | -135.32071 | 34931 ft | 515 kts | 114° |
| 2026-05-05 11:09 | 58.93070 | -135.18753 | 34931 ft | 516 kts | 114° |
| 2026-05-05 11:09 | 58.91050 | -135.05437 | 34933 ft | 516 kts | 114° |
| 2026-05-05 11:10 | 58.89019 | -134.92121 | 34940 ft | 517 kts | 114° |
| 2026-05-05 11:10 | 58.86951 | -134.78803 | 34952 ft | 518 kts | 114° |
| 2026-05-05 11:11 | 58.84856 | -134.65490 | 34954 ft | 518 kts | 114° |
| 2026-05-05 11:11 | 58.82749 | -134.52198 | 34955 ft | 518 kts | 114° |
| 2026-05-05 11:12 | 58.80614 | -134.38893 | 34955 ft | 519 kts | 114° |
| 2026-05-05 11:12 | 58.78577 | -134.25513 | 34955 ft | 521 kts | 113° |
| 2026-05-05 11:13 | 58.76517 | -134.12136 | 34956 ft | 521 kts | 114° |
| 2026-05-05 11:13 | 58.74394 | -133.98806 | 34957 ft | 520 kts | 114° |
| 2026-05-05 11:14 | 58.72246 | -133.85496 | 34957 ft | 522 kts | 114° |
| 2026-05-05 11:14 | 58.70077 | -133.72169 | 34956 ft | 522 kts | 114° |
| 2026-05-05 11:15 | 58.67913 | -133.58946 | 34958 ft | 522 kts | 114° |
| 2026-05-05 11:15 | 58.65712 | -133.45646 | 34957 ft | 522 kts | 114° |
| 2026-05-05 11:16 | 58.63502 | -133.32367 | 34957 ft | 522 kts | 114° |
| 2026-05-05 11:16 | 58.61276 | -133.19106 | 34958 ft | 522 kts | 114° |
| 2026-05-05 11:17 | 58.59034 | -133.05847 | 34959 ft | 523 kts | 114° |
| 2026-05-05 11:17 | 58.56779 | -132.92602 | 34958 ft | 523 kts | 114° |
| 2026-05-05 11:18 | 58.54508 | -132.79357 | 34959 ft | 523 kts | 114° |
| 2026-05-05 11:18 | 58.52221 | -132.66121 | 34960 ft | 524 kts | 114° |
| 2026-05-05 11:19 | 58.49921 | -132.52900 | 34961 ft | 524 kts | 114° |
| 2026-05-05 11:19 | 58.47605 | -132.39688 | 34962 ft | 524 kts | 114° |
| 2026-05-05 11:20 | 58.45276 | -132.26491 | 34982 ft | 525 kts | 114° |
| 2026-05-05 11:20 | 58.42931 | -132.13303 | 34982 ft | 525 kts | 114° |
| 2026-05-05 11:21 | 58.40648 | -132.00074 | 34984 ft | 525 kts | 113° |
| 2026-05-05 11:21 | 58.38259 | -131.86921 | 34987 ft | 525 kts | 114° |
| 2026-05-05 11:22 | 58.35839 | -131.73789 | 34989 ft | 525 kts | 114° |
| 2026-05-05 11:22 | 58.33417 | -131.60674 | 34991 ft | 525 kts | 114° |
| 2026-05-05 11:23 | 58.30955 | -131.47586 | 34993 ft | 525 kts | 115° |
| 2026-05-05 11:23 | 58.28289 | -131.34676 | 34995 ft | 524 kts | 116° |
| 2026-05-05 11:24 | 58.25606 | -131.21785 | 34997 ft | 525 kts | 116° |
| 2026-05-05 11:24 | 58.22921 | -131.08883 | 35000 ft | 526 kts | 116° |
| 2026-05-05 11:25 | 58.20682 | -130.98164 | 35001 ft | 526 kts | 116° |
| 2026-05-05 11:25 | 58.18042 | -130.85218 | 35002 ft | 527 kts | 115° |
| 2026-05-05 11:26 | 58.15404 | -130.72266 | 35003 ft | 527 kts | 115° |
| 2026-05-05 11:26 | 58.12697 | -130.59363 | 35004 ft | 527 kts | 115° |
| 2026-05-05 11:27 | 58.10042 | -130.46432 | 35005 ft | 527 kts | 115° |
| 2026-05-05 11:27 | 58.07301 | -130.33570 | 35008 ft | 527 kts | 116° |
| 2026-05-05 11:28 | 58.04513 | -130.20754 | 35006 ft | 527 kts | 116° |
| 2026-05-05 11:28 | 58.01729 | -130.07947 | 35006 ft | 527 kts | 115° |
| 2026-05-05 11:29 | 57.98971 | -129.95129 | 35007 ft | 528 kts | 114° |
| 2026-05-05 11:29 | 57.96405 | -129.82177 | 35007 ft | 528 kts | 114° |
| 2026-05-05 11:30 | 57.93803 | -129.69229 | 35007 ft | 528 kts | 114° |
| 2026-05-05 11:30 | 57.91169 | -129.56326 | 35006 ft | 528 kts | 114° |
| 2026-05-05 11:31 | 57.88515 | -129.43460 | 35006 ft | 528 kts | 114° |
| 2026-05-05 11:31 | 57.85936 | -129.30529 | 35006 ft | 528 kts | 113° |
| 2026-05-05 11:32 | 57.83368 | -129.17601 | 35005 ft | 529 kts | 113° |
| 2026-05-05 11:32 | 57.80741 | -129.04735 | 35004 ft | 528 kts | 114° |
| 2026-05-05 11:33 | 57.78080 | -128.91880 | 35004 ft | 529 kts | 114° |
| 2026-05-05 11:33 | 57.75418 | -128.79123 | 35005 ft | 530 kts | 114° |
| 2026-05-05 11:34 | 57.72720 | -128.66281 | 35007 ft | 530 kts | 114° |
| 2026-05-05 11:34 | 57.70010 | -128.53450 | 35010 ft | 531 kts | 114° |
| 2026-05-05 11:35 | 57.67273 | -128.40600 | 35017 ft | 532 kts | 114° |
| 2026-05-05 11:35 | 57.64526 | -128.27777 | 35019 ft | 532 kts | 114° |
| 2026-05-05 11:36 | 57.61763 | -128.14954 | 35021 ft | 532 kts | 114° |
| 2026-05-05 11:36 | 57.58993 | -128.02165 | 35023 ft | 532 kts | 114° |
| 2026-05-05 11:37 | 57.56206 | -127.89403 | 35025 ft | 532 kts | 114° |
| 2026-05-05 11:37 | 57.53402 | -127.76629 | 35025 ft | 533 kts | 114° |
| 2026-05-05 11:38 | 57.50588 | -127.63882 | 35030 ft | 533 kts | 114° |
| 2026-05-05 11:38 | 57.47757 | -127.51150 | 35032 ft | 532 kts | 114° |
| 2026-05-05 11:39 | 57.44917 | -127.38449 | 35034 ft | 532 kts | 114° |
| 2026-05-05 11:39 | 57.42064 | -127.25765 | 35036 ft | 533 kts | 114° |
| 2026-05-05 11:40 | 57.39196 | -127.13094 | 35048 ft | 533 kts | 114° |
| 2026-05-05 11:40 | 57.36315 | -127.00435 | 35058 ft | 533 kts | 114° |
| 2026-05-05 11:41 | 57.33417 | -126.87782 | 35060 ft | 533 kts | 114° |
| 2026-05-05 11:41 | 57.30508 | -126.75154 | 35063 ft | 534 kts | 114° |
| 2026-05-05 11:42 | 57.27585 | -126.62537 | 35065 ft | 534 kts | 114° |
| 2026-05-05 11:42 | 57.24648 | -126.49940 | 35073 ft | 534 kts | 114° |
| 2026-05-05 11:43 | 57.21695 | -126.37344 | 35080 ft | 535 kts | 114° |
| 2026-05-05 11:43 | 57.18728 | -126.24767 | 35082 ft | 535 kts | 114° |
| 2026-05-05 11:44 | 57.15748 | -126.12204 | 35083 ft | 535 kts | 114° |
| 2026-05-05 11:44 | 57.12758 | -125.99659 | 35087 ft | 534 kts | 114° |
| 2026-05-05 11:45 | 57.09752 | -125.87152 | 35087 ft | 536 kts | 114° |
| 2026-05-05 11:45 | 57.06743 | -125.74688 | 35087 ft | 537 kts | 114° |
| 2026-05-05 11:46 | 57.03699 | -125.62146 | 35089 ft | 537 kts | 114° |
| 2026-05-05 11:46 | 57.00647 | -125.49632 | 35092 ft | 537 kts | 114° |
| 2026-05-05 11:47 | 56.97580 | -125.37141 | 35091 ft | 537 kts | 114° |
| 2026-05-05 11:47 | 56.94496 | -125.24666 | 35093 ft | 537 kts | 114° |
| 2026-05-05 11:48 | 56.89852 | -125.05999 | 35095 ft | 537 kts | 114° |
| 2026-05-05 11:48 | 56.86739 | -124.93574 | 35096 ft | 538 kts | 114° |
| 2026-05-05 11:49 | 56.83614 | -124.81157 | 35097 ft | 538 kts | 114° |
| 2026-05-05 11:49 | 56.80470 | -124.68753 | 35098 ft | 538 kts | 114° |
| 2026-05-05 11:50 | 56.77319 | -124.56386 | 35100 ft | 538 kts | 114° |
| 2026-05-05 11:50 | 56.74155 | -124.44037 | 35100 ft | 537 kts | 114° |
| 2026-05-05 11:51 | 56.70982 | -124.31716 | 35102 ft | 537 kts | 114° |
| 2026-05-05 11:51 | 56.67798 | -124.19424 | 35103 ft | 537 kts | 114° |
| 2026-05-05 11:52 | 56.64601 | -124.07146 | 35104 ft | 537 kts | 114° |
| 2026-05-05 11:52 | 56.61395 | -123.94908 | 35105 ft | 537 kts | 114° |
| 2026-05-05 11:53 | 56.58172 | -123.82664 | 35106 ft | 538 kts | 114° |
| 2026-05-05 11:53 | 56.54934 | -123.70429 | 35105 ft | 538 kts | 114° |
| 2026-05-05 11:54 | 56.51682 | -123.58202 | 35108 ft | 539 kts | 114° |
| 2026-05-05 11:54 | 56.48414 | -123.45996 | 35108 ft | 539 kts | 114° |
| 2026-05-05 11:55 | 56.45133 | -123.33798 | 35109 ft | 540 kts | 114° |
| 2026-05-05 11:55 | 56.41834 | -123.21603 | 35110 ft | 540 kts | 114° |
| 2026-05-05 11:56 | 56.38519 | -123.09413 | 35111 ft | 541 kts | 114° |
| 2026-05-05 11:56 | 56.35193 | -122.97239 | 35146 ft | 541 kts | 114° |
| 2026-05-05 11:57 | 56.31846 | -122.85065 | 35147 ft | 542 kts | 114° |
| 2026-05-05 11:57 | 56.28480 | -122.72886 | 35149 ft | 543 kts | 114° |
| 2026-05-05 11:58 | 56.25101 | -122.60726 | 35156 ft | 544 kts | 114° |
| 2026-05-05 11:58 | 56.21708 | -122.48573 | 35162 ft | 544 kts | 114° |
| 2026-05-05 11:59 | 56.18303 | -122.36446 | 35163 ft | 544 kts | 114° |
| 2026-05-05 11:59 | 56.14885 | -122.24334 | 35166 ft | 544 kts | 114° |
| 2026-05-05 12:00 | 56.11455 | -122.12242 | 35168 ft | 544 kts | 114° |
| 2026-05-05 12:00 | 56.08037 | -122.00258 | 35170 ft | 544 kts | 114° |
| 2026-05-05 12:01 | 56.04586 | -121.88215 | 35173 ft | 544 kts | 114° |
| 2026-05-05 12:01 | 56.01123 | -121.76198 | 35175 ft | 544 kts | 114° |
| 2026-05-05 12:02 | 55.97648 | -121.64200 | 35177 ft | 544 kts | 114° |
| 2026-05-05 12:02 | 55.94160 | -121.52221 | 35180 ft | 544 kts | 114° |
| 2026-05-05 12:03 | 55.90660 | -121.40258 | 35181 ft | 544 kts | 114° |
| 2026-05-05 12:03 | 55.87147 | -121.28314 | 35183 ft | 544 kts | 114° |
| 2026-05-05 12:04 | 55.83621 | -121.16389 | 35184 ft | 544 kts | 114° |
| 2026-05-05 12:04 | 55.80084 | -121.04485 | 35185 ft | 545 kts | 114° |
| 2026-05-05 12:05 | 55.76533 | -120.92591 | 35186 ft | 545 kts | 114° |
| 2026-05-05 12:05 | 55.72964 | -120.80700 | 35184 ft | 546 kts | 114° |
| 2026-05-05 12:06 | 55.69381 | -120.68825 | 35186 ft | 546 kts | 114° |
| 2026-05-05 12:06 | 55.65784 | -120.56955 | 35186 ft | 547 kts | 114° |
| 2026-05-05 12:07 | 55.62168 | -120.45086 | 35189 ft | 548 kts | 114° |
| 2026-05-05 12:07 | 55.58535 | -120.33227 | 35190 ft | 549 kts | 114° |
| 2026-05-05 12:08 | 55.54888 | -120.21378 | 35190 ft | 549 kts | 114° |
| 2026-05-05 12:08 | 55.51229 | -120.09550 | 35190 ft | 549 kts | 114° |
| 2026-05-05 12:09 | 55.47562 | -119.97745 | 35192 ft | 549 kts | 114° |
| 2026-05-05 12:09 | 55.43874 | -119.85958 | 35193 ft | 550 kts | 114° |
| 2026-05-05 12:10 | 55.40792 | -119.76165 | 35193 ft | 550 kts | 114° |
| 2026-05-05 12:10 | 55.37078 | -119.64389 | 35194 ft | 550 kts | 114° |
| 2026-05-05 12:11 | 55.33360 | -119.52649 | 35195 ft | 549 kts | 114° |
| 2026-05-05 12:11 | 55.29692 | -119.40905 | 35197 ft | 548 kts | 114° |
| 2026-05-05 12:12 | 55.25947 | -119.29251 | 35198 ft | 548 kts | 114° |
| 2026-05-05 12:12 | 55.22180 | -119.17617 | 35199 ft | 549 kts | 114° |
| 2026-05-05 12:13 | 55.18407 | -119.05989 | 35199 ft | 549 kts | 114° |
| 2026-05-05 12:13 | 55.14540 | -118.94455 | 35200 ft | 551 kts | 116° |
| 2026-05-05 12:14 | 55.10522 | -118.83168 | 35200 ft | 552 kts | 116° |
| 2026-05-05 12:14 | 55.06468 | -118.71771 | 35200 ft | 552 kts | 116° |
| 2026-05-05 12:15 | 55.02417 | -118.60401 | 35200 ft | 552 kts | 116° |
| 2026-05-05 12:15 | 54.98383 | -118.49046 | 35203 ft | 551 kts | 115° |
| 2026-05-05 12:16 | 54.94426 | -118.37641 | 35201 ft | 551 kts | 115° |
| 2026-05-05 12:16 | 54.90413 | -118.26294 | 35201 ft | 551 kts | 115° |
| 2026-05-05 12:17 | 54.86377 | -118.14995 | 35202 ft | 551 kts | 115° |
| 2026-05-05 12:17 | 54.82323 | -118.03721 | 35205 ft | 551 kts | 115° |
| 2026-05-05 12:18 | 54.78255 | -117.92468 | 35207 ft | 551 kts | 115° |
| 2026-05-05 12:18 | 54.74173 | -117.81226 | 35207 ft | 552 kts | 115° |
| 2026-05-05 12:19 | 54.70075 | -117.69991 | 35209 ft | 552 kts | 115° |
| 2026-05-05 12:19 | 54.65967 | -117.58785 | 35210 ft | 552 kts | 115° |
| 2026-05-05 12:20 | 54.61844 | -117.47586 | 35211 ft | 553 kts | 115° |
| 2026-05-05 12:20 | 54.57709 | -117.36405 | 35215 ft | 553 kts | 115° |
| 2026-05-05 12:21 | 54.53555 | -117.25225 | 35229 ft | 554 kts | 115° |
| 2026-05-05 12:21 | 54.49387 | -117.14055 | 35231 ft | 555 kts | 115° |
| 2026-05-05 12:22 | 54.45201 | -117.02891 | 35231 ft | 555 kts | 115° |
| 2026-05-05 12:22 | 54.41008 | -116.91757 | 35231 ft | 555 kts | 115° |
| 2026-05-05 12:23 | 54.36833 | -116.80721 | 35230 ft | 556 kts | 115° |
| 2026-05-05 12:23 | 54.32616 | -116.69620 | 35231 ft | 556 kts | 115° |
| 2026-05-05 12:24 | 54.28383 | -116.58528 | 35232 ft | 557 kts | 115° |
| 2026-05-05 12:24 | 54.24139 | -116.47455 | 35231 ft | 557 kts | 115° |
| 2026-05-05 12:25 | 54.19877 | -116.36389 | 35238 ft | 557 kts | 115° |
| 2026-05-05 12:25 | 54.15606 | -116.25348 | 35238 ft | 558 kts | 115° |
| 2026-05-05 12:26 | 54.11317 | -116.14306 | 35237 ft | 559 kts | 115° |
| 2026-05-05 12:26 | 54.07014 | -116.03280 | 35238 ft | 559 kts | 115° |
| 2026-05-05 12:27 | 54.02699 | -115.92270 | 35238 ft | 559 kts | 115° |
| 2026-05-05 12:27 | 53.98373 | -115.81283 | 35238 ft | 559 kts | 115° |
| 2026-05-05 12:28 | 53.94040 | -115.70324 | 35239 ft | 559 kts | 115° |
| 2026-05-05 12:28 | 53.89690 | -115.59371 | 35240 ft | 559 kts | 115° |
| 2026-05-05 12:29 | 53.85337 | -115.48456 | 35241 ft | 559 kts | 115° |
| 2026-05-05 12:29 | 53.80975 | -115.37567 | 35242 ft | 558 kts | 115° |
| 2026-05-05 12:30 | 53.76608 | -115.26714 | 35245 ft | 558 kts | 115° |
| 2026-05-05 12:30 | 53.72236 | -115.15894 | 35246 ft | 558 kts | 115° |
| 2026-05-05 12:31 | 53.67850 | -115.05086 | 35248 ft | 557 kts | 115° |
| 2026-05-05 12:31 | 53.63494 | -114.94397 | 35251 ft | 557 kts | 115° |
| 2026-05-05 12:32 | 53.59092 | -114.83643 | 35254 ft | 558 kts | 115° |
| 2026-05-05 12:32 | 53.54675 | -114.72898 | 35253 ft | 558 kts | 115° |
| 2026-05-05 12:33 | 53.50255 | -114.62189 | 35258 ft | 557 kts | 115° |
| 2026-05-05 12:33 | 53.45829 | -114.51510 | 35260 ft | 558 kts | 115° |
| 2026-05-05 12:34 | 53.41398 | -114.40862 | 35263 ft | 555 kts | 116° |
| 2026-05-05 12:34 | 53.36967 | -114.30259 | 35264 ft | 555 kts | 116° |
| 2026-05-05 12:35 | 53.32566 | -114.19628 | 35263 ft | 556 kts | 116° |
| 2026-05-05 12:35 | 53.28095 | -114.09070 | 35263 ft | 556 kts | 116° |
| 2026-05-05 12:36 | 53.23617 | -113.98551 | 35261 ft | 555 kts | 116° |
| 2026-05-05 12:36 | 53.19140 | -113.88051 | 35258 ft | 555 kts | 116° |
| 2026-05-05 12:37 | 53.14719 | -113.77504 | 35260 ft | 555 kts | 115° |
| 2026-05-05 12:37 | 53.10311 | -113.66966 | 35260 ft | 555 kts | 115° |
| 2026-05-05 12:38 | 53.05887 | -113.56464 | 35260 ft | 553 kts | 115° |
| 2026-05-05 12:38 | 53.01490 | -113.46077 | 35258 ft | 553 kts | 116° |
| 2026-05-05 12:39 | 52.97083 | -113.35605 | 35257 ft | 553 kts | 115° |
| 2026-05-05 12:39 | 52.92720 | -113.25100 | 35255 ft | 553 kts | 115° |
| 2026-05-05 12:40 | 52.88319 | -113.14660 | 35256 ft | 552 kts | 115° |
| 2026-05-05 12:40 | 52.83898 | -113.04274 | 35252 ft | 552 kts | 115° |
| 2026-05-05 12:41 | 52.79468 | -112.93914 | 35250 ft | 552 kts | 116° |
| 2026-05-05 12:41 | 52.75016 | -112.83556 | 35249 ft | 553 kts | 116° |
| 2026-05-05 12:42 | 52.70556 | -112.73221 | 35248 ft | 553 kts | 116° |
| 2026-05-05 12:42 | 52.66093 | -112.62920 | 35246 ft | 552 kts | 116° |
| 2026-05-05 12:43 | 52.61625 | -112.52650 | 35244 ft | 552 kts | 116° |
| 2026-05-05 12:43 | 52.57177 | -112.42467 | 35243 ft | 552 kts | 116° |
| 2026-05-05 12:44 | 52.52693 | -112.32239 | 35241 ft | 551 kts | 116° |
| 2026-05-05 12:44 | 52.48206 | -112.22051 | 35241 ft | 551 kts | 116° |
| 2026-05-05 12:45 | 52.43713 | -112.11884 | 35241 ft | 551 kts | 116° |
| 2026-05-05 12:45 | 52.39205 | -112.01729 | 35239 ft | 551 kts | 116° |
| 2026-05-05 12:46 | 52.34694 | -111.91607 | 35237 ft | 549 kts | 116° |
| 2026-05-05 12:46 | 52.30187 | -111.81531 | 35237 ft | 549 kts | 116° |
| 2026-05-05 12:47 | 52.25673 | -111.71481 | 35236 ft | 549 kts | 116° |
| 2026-05-05 12:47 | 52.21145 | -111.61438 | 35234 ft | 549 kts | 117° |
| 2026-05-05 12:48 | 52.16612 | -111.51425 | 35227 ft | 549 kts | 117° |
| 2026-05-05 12:48 | 52.12071 | -111.41430 | 35226 ft | 549 kts | 117° |
| 2026-05-05 12:49 | 52.07519 | -111.31453 | 35224 ft | 549 kts | 117° |
| 2026-05-05 12:49 | 52.02967 | -111.21511 | 35223 ft | 548 kts | 118° |
| 2026-05-05 12:50 | 51.98417 | -111.11615 | 35222 ft | 546 kts | 118° |
| 2026-05-05 12:50 | 51.93870 | -111.01761 | 35212 ft | 545 kts | 118° |
| 2026-05-05 12:51 | 51.89327 | -110.91952 | 35210 ft | 543 kts | 119° |
| 2026-05-05 12:51 | 51.84791 | -110.82200 | 35207 ft | 542 kts | 119° |
| 2026-05-05 12:52 | 51.80250 | -110.72472 | 35205 ft | 541 kts | 120° |
| 2026-05-05 12:52 | 51.75715 | -110.62796 | 35203 ft | 540 kts | 120° |
| 2026-05-05 12:53 | 51.71208 | -110.53214 | 35202 ft | 539 kts | 120° |
| 2026-05-05 12:53 | 51.66668 | -110.43596 | 35200 ft | 539 kts | 120° |
| 2026-05-05 12:54 | 51.59849 | -110.29220 | 35198 ft | 539 kts | 121° |
| 2026-05-05 12:55 | 51.55288 | -110.19648 | 35197 ft | 539 kts | 121° |
| 2026-05-05 12:55 | 51.50717 | -110.10090 | 35194 ft | 539 kts | 121° |
| 2026-05-05 12:56 | 51.46146 | -110.00568 | 35188 ft | 539 kts | 121° |
| 2026-05-05 12:56 | 51.41567 | -109.91064 | 35189 ft | 537 kts | 122° |
| 2026-05-05 12:57 | 51.37010 | -109.81640 | 35188 ft | 535 kts | 122° |
| 2026-05-05 12:57 | 51.32445 | -109.72236 | 35188 ft | 535 kts | 122° |
| 2026-05-05 12:58 | 51.27875 | -109.62855 | 35188 ft | 535 kts | 122° |
| 2026-05-05 12:58 | 51.23297 | -109.53489 | 35186 ft | 535 kts | 122° |
| 2026-05-05 12:59 | 51.19488 | -109.45721 | 35188 ft | 535 kts | 122° |
| 2026-05-05 12:59 | 51.14901 | -109.36403 | 35187 ft | 534 kts | 123° |
| 2026-05-05 13:00 | 51.08017 | -109.22475 | 35187 ft | 533 kts | 123° |
| 2026-05-05 13:01 | 50.98830 | -109.04009 | 35182 ft | 532 kts | 123° |
| 2026-05-05 13:01 | 50.94231 | -108.94813 | 35180 ft | 532 kts | 124° |
| 2026-05-05 13:02 | 50.89629 | -108.85643 | 35176 ft | 531 kts | 124° |
| 2026-05-05 13:02 | 50.85023 | -108.76498 | 35172 ft | 531 kts | 124° |
| 2026-05-05 13:03 | 50.80415 | -108.67378 | 35170 ft | 530 kts | 124° |
| 2026-05-05 13:03 | 50.75805 | -108.58292 | 35163 ft | 530 kts | 124° |
| 2026-05-05 13:04 | 50.71224 | -108.49292 | 35157 ft | 529 kts | 124° |
| 2026-05-05 13:04 | 50.66600 | -108.40240 | 35152 ft | 529 kts | 125° |
| 2026-05-05 13:05 | 50.61984 | -108.31232 | 35145 ft | 529 kts | 125° |
| 2026-05-05 13:05 | 50.57356 | -108.22233 | 35138 ft | 528 kts | 125° |
| 2026-05-05 13:06 | 50.52727 | -108.13263 | 35130 ft | 528 kts | 125° |
| 2026-05-05 13:06 | 50.48120 | -108.04285 | 35126 ft | 527 kts | 125° |
| 2026-05-05 13:07 | 50.43493 | -107.95350 | 35124 ft | 527 kts | 126° |
| 2026-05-05 13:07 | 50.38849 | -107.86488 | 35122 ft | 526 kts | 126° |
| 2026-05-05 13:08 | 50.34202 | -107.77644 | 35121 ft | 526 kts | 126° |
| 2026-05-05 13:08 | 50.29553 | -107.68804 | 35120 ft | 526 kts | 126° |
| 2026-05-05 13:09 | 50.25096 | -107.59759 | 35120 ft | 525 kts | 123° |
| 2026-05-05 13:09 | 50.20713 | -107.50639 | 35120 ft | 525 kts | 123° |
| 2026-05-05 13:10 | 50.16301 | -107.41574 | 35120 ft | 524 kts | 124° |
| 2026-05-05 13:10 | 50.11876 | -107.32543 | 35120 ft | 524 kts | 124° |
| 2026-05-05 13:11 | 50.07461 | -107.23515 | 35120 ft | 524 kts | 123° |
| 2026-05-05 13:11 | 50.03088 | -107.14445 | 35119 ft | 523 kts | 124° |
| 2026-05-05 13:12 | 49.98688 | -107.05444 | 35119 ft | 523 kts | 124° |
| 2026-05-05 13:12 | 49.94260 | -106.96453 | 35120 ft | 524 kts | 124° |
| 2026-05-05 13:13 | 49.89856 | -106.87556 | 35119 ft | 523 kts | 125° |
| 2026-05-05 13:13 | 49.85418 | -106.78621 | 35120 ft | 523 kts | 125° |
| 2026-05-05 13:14 | 49.80975 | -106.69710 | 35118 ft | 522 kts | 125° |
| 2026-05-05 13:14 | 49.76528 | -106.60823 | 35113 ft | 522 kts | 125° |
| 2026-05-05 13:15 | 49.72073 | -106.51948 | 35109 ft | 522 kts | 125° |
| 2026-05-05 13:15 | 49.67618 | -106.43104 | 35108 ft | 521 kts | 125° |
| 2026-05-05 13:16 | 49.63156 | -106.34275 | 35106 ft | 522 kts | 126° |
| 2026-05-05 13:16 | 49.58688 | -106.25463 | 35105 ft | 522 kts | 126° |
| 2026-05-05 13:17 | 49.54209 | -106.16659 | 35104 ft | 522 kts | 126° |
| 2026-05-05 13:17 | 49.49724 | -106.07872 | 35102 ft | 522 kts | 126° |
| 2026-05-05 13:18 | 49.45227 | -105.99090 | 35100 ft | 522 kts | 126° |
| 2026-05-05 13:18 | 49.40728 | -105.90334 | 35098 ft | 522 kts | 126° |
| 2026-05-05 13:19 | 49.36226 | -105.81601 | 35096 ft | 521 kts | 126° |
| 2026-05-05 13:19 | 49.31720 | -105.72889 | 35094 ft | 522 kts | 126° |
| 2026-05-05 13:20 | 49.27201 | -105.64182 | 35092 ft | 523 kts | 127° |
| 2026-05-05 13:20 | 49.22667 | -105.55472 | 35089 ft | 523 kts | 127° |
| 2026-05-05 13:21 | 49.18158 | -105.46839 | 35085 ft | 523 kts | 127° |
| 2026-05-05 13:21 | 49.13611 | -105.38164 | 35081 ft | 523 kts | 127° |
| 2026-05-05 13:22 | 49.09059 | -105.29504 | 35079 ft | 523 kts | 127° |
| 2026-05-05 13:22 | 49.04502 | -105.20861 | 35079 ft | 523 kts | 127° |
| 2026-05-05 13:23 | 48.99931 | -105.12226 | 35078 ft | 524 kts | 128° |
| 2026-05-05 13:23 | 48.95350 | -105.03597 | 35077 ft | 524 kts | 128° |
| 2026-05-05 13:24 | 48.90759 | -104.94978 | 35076 ft | 524 kts | 128° |
| 2026-05-05 13:24 | 48.86168 | -104.86385 | 35074 ft | 524 kts | 128° |
| 2026-05-05 13:25 | 48.81559 | -104.77786 | 35071 ft | 525 kts | 128° |
| 2026-05-05 13:25 | 48.76943 | -104.69200 | 35070 ft | 525 kts | 128° |
| 2026-05-05 13:26 | 48.72324 | -104.60632 | 35070 ft | 525 kts | 128° |
| 2026-05-05 13:26 | 48.67694 | -104.52084 | 35070 ft | 525 kts | 129° |
| 2026-05-05 13:27 | 48.63054 | -104.43535 | 35069 ft | 525 kts | 129° |
| 2026-05-05 13:27 | 48.58400 | -104.34996 | 35066 ft | 526 kts | 129° |
| 2026-05-05 13:28 | 48.53771 | -104.26526 | 35063 ft | 527 kts | 129° |
| 2026-05-05 13:28 | 48.49095 | -104.17996 | 35058 ft | 527 kts | 129° |
| 2026-05-05 13:29 | 48.44437 | -104.09474 | 35053 ft | 527 kts | 129° |
| 2026-05-05 13:29 | 48.39768 | -104.00966 | 35048 ft | 527 kts | 129° |
| 2026-05-05 13:30 | 48.35063 | -103.92497 | 35045 ft | 528 kts | 130° |
| 2026-05-05 13:30 | 48.30344 | -103.84032 | 35042 ft | 528 kts | 130° |
| 2026-05-05 13:31 | 48.25631 | -103.75576 | 35040 ft | 528 kts | 129° |
| 2026-05-05 13:31 | 48.21234 | -103.66754 | 35041 ft | 528 kts | 125° |
| 2026-05-05 13:32 | 48.16979 | -103.57786 | 35042 ft | 528 kts | 125° |
| 2026-05-05 13:32 | 48.12684 | -103.48862 | 35045 ft | 528 kts | 126° |
| 2026-05-05 13:33 | 48.08370 | -103.39970 | 35048 ft | 528 kts | 126° |
| 2026-05-05 13:33 | 48.04057 | -103.31081 | 35052 ft | 528 kts | 125° |
| 2026-05-05 13:34 | 47.99793 | -103.22153 | 35053 ft | 528 kts | 125° |
| 2026-05-05 13:34 | 47.95516 | -103.13313 | 35054 ft | 530 kts | 126° |
| 2026-05-05 13:35 | 47.91171 | -103.04406 | 35055 ft | 532 kts | 127° |
| 2026-05-05 13:35 | 47.86809 | -102.95505 | 35053 ft | 532 kts | 127° |
| 2026-05-05 13:36 | 47.82441 | -102.86624 | 35048 ft | 531 kts | 127° |
| 2026-05-05 13:36 | 47.78063 | -102.77753 | 35044 ft | 532 kts | 127° |
| 2026-05-05 13:37 | 47.73674 | -102.68890 | 35039 ft | 532 kts | 127° |
| 2026-05-05 13:37 | 47.69278 | -102.60042 | 35036 ft | 532 kts | 127° |
| 2026-05-05 13:38 | 47.64879 | -102.51216 | 35034 ft | 532 kts | 127° |
| 2026-05-05 13:38 | 47.60470 | -102.42396 | 35033 ft | 532 kts | 127° |
| 2026-05-05 13:39 | 47.56052 | -102.33591 | 35023 ft | 532 kts | 127° |
| 2026-05-05 13:39 | 47.51632 | -102.24807 | 35021 ft | 532 kts | 127° |
| 2026-05-05 13:40 | 47.47205 | -102.16038 | 35019 ft | 532 kts | 128° |
| 2026-05-05 13:40 | 47.42769 | -102.07279 | 35019 ft | 532 kts | 128° |
| 2026-05-05 13:41 | 47.38362 | -101.98604 | 35019 ft | 532 kts | 128° |
| 2026-05-05 13:41 | 47.33906 | -101.89861 | 35021 ft | 534 kts | 128° |
| 2026-05-05 13:42 | 47.29436 | -101.81120 | 35024 ft | 534 kts | 128° |
| 2026-05-05 13:42 | 47.24955 | -101.72383 | 35028 ft | 535 kts | 128° |
| 2026-05-05 13:43 | 47.20465 | -101.63658 | 35029 ft | 535 kts | 129° |
| 2026-05-05 13:43 | 47.15961 | -101.54932 | 35027 ft | 536 kts | 129° |
| 2026-05-05 13:44 | 47.11448 | -101.46218 | 35022 ft | 536 kts | 129° |
| 2026-05-05 13:44 | 47.06927 | -101.37513 | 35020 ft | 536 kts | 129° |
| 2026-05-05 13:45 | 47.02399 | -101.28825 | 35016 ft | 537 kts | 129° |
| 2026-05-05 13:45 | 46.97853 | -101.20129 | 35012 ft | 537 kts | 129° |
| 2026-05-05 13:46 | 46.93303 | -101.11449 | 35008 ft | 538 kts | 130° |
| 2026-05-05 13:46 | 46.88738 | -101.02771 | 35001 ft | 538 kts | 129° |
| 2026-05-05 13:47 | 46.84939 | -100.95570 | 35002 ft | 539 kts | 130° |
| 2026-05-05 13:47 | 46.80354 | -100.86906 | 35000 ft | 539 kts | 130° |
| 2026-05-05 13:48 | 46.75762 | -100.78254 | 35000 ft | 539 kts | 130° |
| 2026-05-05 13:48 | 46.71159 | -100.69609 | 35000 ft | 540 kts | 130° |
| 2026-05-05 13:49 | 46.66544 | -100.60968 | 35001 ft | 541 kts | 130° |
| 2026-05-05 13:49 | 46.61920 | -100.52336 | 35001 ft | 541 kts | 131° |
| 2026-05-05 13:50 | 46.57282 | -100.43706 | 35003 ft | 541 kts | 131° |
| 2026-05-05 13:50 | 46.52639 | -100.35092 | 35004 ft | 542 kts | 131° |
| 2026-05-05 13:51 | 46.47981 | -100.26479 | 35006 ft | 543 kts | 131° |
| 2026-05-05 13:51 | 46.43311 | -100.17869 | 35008 ft | 543 kts | 131° |
| 2026-05-05 13:52 | 46.38630 | -100.09266 | 35008 ft | 544 kts | 131° |
| 2026-05-05 13:52 | 46.33970 | -100.00728 | 35008 ft | 545 kts | 132° |
| 2026-05-05 13:53 | 46.29263 | -99.92129 | 35007 ft | 545 kts | 132° |
| 2026-05-05 13:53 | 46.24555 | -99.83547 | 35005 ft | 545 kts | 132° |
| 2026-05-05 13:54 | 46.19838 | -99.74990 | 35001 ft | 545 kts | 132° |
| 2026-05-05 13:54 | 46.15114 | -99.66443 | 34997 ft | 545 kts | 132° |
| 2026-05-05 13:55 | 46.10385 | -99.57911 | 34994 ft | 544 kts | 132° |
| 2026-05-05 13:55 | 46.05660 | -99.49412 | 34991 ft | 544 kts | 132° |
| 2026-05-05 13:56 | 46.00930 | -99.40928 | 34988 ft | 543 kts | 132° |
| 2026-05-05 13:56 | 45.96191 | -99.32452 | 34985 ft | 546 kts | 133° |
| 2026-05-05 13:57 | 45.91407 | -99.23925 | 34986 ft | 549 kts | 133° |
| 2026-05-05 13:57 | 45.86615 | -99.15409 | 34981 ft | 548 kts | 133° |
| 2026-05-05 13:58 | 45.81812 | -99.06901 | 34979 ft | 548 kts | 134° |
| 2026-05-05 13:58 | 45.77013 | -98.98425 | 34976 ft | 548 kts | 134° |
| 2026-05-05 13:59 | 45.69820 | -98.85767 | 34974 ft | 549 kts | 134° |
| 2026-05-05 14:00 | 45.62581 | -98.73084 | 34972 ft | 549 kts | 134° |
| 2026-05-05 14:00 | 45.57773 | -98.64607 | 34970 ft | 548 kts | 134° |
| 2026-05-05 14:01 | 45.52927 | -98.56196 | 34970 ft | 548 kts | 134° |
| 2026-05-05 14:01 | 45.48074 | -98.47809 | 34970 ft | 548 kts | 134° |
| 2026-05-05 14:02 | 45.43250 | -98.39397 | 34960 ft | 550 kts | 130° |
| 2026-05-05 14:02 | 45.39524 | -98.29828 | 34971 ft | 557 kts | 118° |
| 2026-05-05 14:03 | 45.36483 | -98.19660 | 34968 ft | 560 kts | 115° |
| 2026-05-05 14:03 | 45.33495 | -98.09403 | 34967 ft | 560 kts | 115° |
| 2026-05-05 14:04 | 45.30453 | -97.99210 | 34971 ft | 561 kts | 116° |
| 2026-05-05 14:04 | 45.27397 | -97.89012 | 34968 ft | 562 kts | 115° |
| 2026-05-05 14:05 | 45.24385 | -97.78756 | 34965 ft | 563 kts | 116° |
| 2026-05-05 14:05 | 45.21319 | -97.68518 | 34953 ft | 564 kts | 116° |
| 2026-05-05 14:06 | 45.18224 | -97.58290 | 34950 ft | 565 kts | 116° |
| 2026-05-05 14:06 | 45.15113 | -97.48060 | 34950 ft | 566 kts | 117° |
| 2026-05-05 14:07 | 45.11982 | -97.37812 | 34950 ft | 567 kts | 117° |
| 2026-05-05 14:07 | 45.08839 | -97.27564 | 34950 ft | 568 kts | 117° |
| 2026-05-05 14:08 | 45.05705 | -97.17389 | 34950 ft | 568 kts | 117° |
| 2026-05-05 14:08 | 45.02543 | -97.07156 | 34951 ft | 568 kts | 117° |
| 2026-05-05 14:09 | 44.99344 | -96.96856 | 34949 ft | 569 kts | 117° |
| 2026-05-05 14:09 | 44.96176 | -96.86695 | 34949 ft | 569 kts | 117° |
| 2026-05-05 14:10 | 44.92975 | -96.76465 | 34950 ft | 570 kts | 117° |
| 2026-05-05 14:10 | 44.89759 | -96.66227 | 34952 ft | 571 kts | 117° |
| 2026-05-05 14:11 | 44.86533 | -96.56002 | 34958 ft | 571 kts | 118° |
| 2026-05-05 14:11 | 44.83292 | -96.45765 | 34965 ft | 572 kts | 118° |
| 2026-05-05 14:12 | 44.80035 | -96.35519 | 34969 ft | 573 kts | 118° |
| 2026-05-05 14:12 | 44.76762 | -96.25267 | 34969 ft | 575 kts | 118° |
| 2026-05-05 14:13 | 44.73480 | -96.15011 | 34971 ft | 575 kts | 118° |
| 2026-05-05 14:13 | 44.70181 | -96.04763 | 34966 ft | 575 kts | 118° |
| 2026-05-05 14:14 | 44.66874 | -95.94528 | 34963 ft | 576 kts | 118° |
| 2026-05-05 14:14 | 44.63549 | -95.84273 | 34964 ft | 578 kts | 118° |
| 2026-05-05 14:15 | 44.60207 | -95.74004 | 34963 ft | 578 kts | 119° |
| 2026-05-05 14:15 | 44.56858 | -95.63754 | 34962 ft | 578 kts | 119° |
| 2026-05-05 14:16 | 44.53500 | -95.53517 | 34962 ft | 578 kts | 119° |
| 2026-05-05 14:16 | 44.50134 | -95.43295 | 34958 ft | 578 kts | 119° |
| 2026-05-05 14:17 | 44.46760 | -95.33088 | 34954 ft | 577 kts | 119° |
| 2026-05-05 14:17 | 44.43404 | -95.22973 | 34952 ft | 577 kts | 119° |
| 2026-05-05 14:18 | 44.40017 | -95.12802 | 34951 ft | 577 kts | 119° |
| 2026-05-05 14:18 | 44.36620 | -95.02644 | 34950 ft | 577 kts | 119° |
| 2026-05-05 14:19 | 44.33210 | -94.92487 | 34950 ft | 577 kts | 119° |
| 2026-05-05 14:19 | 44.29794 | -94.82338 | 34953 ft | 578 kts | 119° |
| 2026-05-05 14:20 | 44.26361 | -94.72193 | 34952 ft | 579 kts | 120° |
| 2026-05-05 14:20 | 44.22914 | -94.62039 | 34955 ft | 580 kts | 120° |
| 2026-05-05 14:21 | 44.19452 | -94.51875 | 34955 ft | 581 kts | 120° |
| 2026-05-05 14:21 | 44.15973 | -94.41707 | 34952 ft | 582 kts | 120° |
| 2026-05-05 14:22 | 44.12513 | -94.31515 | 34951 ft | 583 kts | 120° |
| 2026-05-05 14:22 | 44.09008 | -94.21332 | 34950 ft | 584 kts | 120° |
| 2026-05-05 14:23 | 44.05473 | -94.11173 | 34949 ft | 584 kts | 120° |
| 2026-05-05 14:23 | 44.01931 | -94.01015 | 34948 ft | 584 kts | 120° |
| 2026-05-05 14:24 | 43.98434 | -93.90910 | 34948 ft | 584 kts | 120° |
| 2026-05-05 14:24 | 43.94943 | -93.80729 | 34948 ft | 584 kts | 120° |
| 2026-05-05 14:25 | 43.91432 | -93.70552 | 34948 ft | 584 kts | 120° |
| 2026-05-05 14:25 | 43.87917 | -93.60409 | 34945 ft | 583 kts | 120° |
| 2026-05-05 14:26 | 43.84414 | -93.50283 | 34937 ft | 583 kts | 120° |
| 2026-05-05 14:26 | 43.80953 | -93.40113 | 34934 ft | 583 kts | 120° |
| 2026-05-05 14:27 | 43.77451 | -93.29989 | 34931 ft | 582 kts | 120° |
| 2026-05-05 14:27 | 43.73942 | -93.19920 | 34926 ft | 581 kts | 120° |
| 2026-05-05 14:28 | 43.70424 | -93.09870 | 34923 ft | 581 kts | 121° |
| 2026-05-05 14:28 | 43.66896 | -92.99835 | 34921 ft | 581 kts | 121° |
| 2026-05-05 14:29 | 43.63365 | -92.89814 | 34922 ft | 579 kts | 121° |
| 2026-05-05 14:29 | 43.59831 | -92.79842 | 34920 ft | 578 kts | 121° |
| 2026-05-05 14:30 | 43.56289 | -92.69875 | 34921 ft | 579 kts | 121° |
| 2026-05-05 14:30 | 43.52735 | -92.59912 | 34922 ft | 579 kts | 121° |
| 2026-05-05 14:31 | 43.49174 | -92.49961 | 34918 ft | 579 kts | 121° |
| 2026-05-05 14:31 | 43.45605 | -92.40026 | 34916 ft | 579 kts | 122° |
| 2026-05-05 14:32 | 43.42027 | -92.30103 | 34916 ft | 579 kts | 122° |
| 2026-05-05 14:32 | 43.38470 | -92.20270 | 34915 ft | 577 kts | 122° |
| 2026-05-05 14:33 | 43.34887 | -92.10401 | 34914 ft | 577 kts | 122° |
| 2026-05-05 14:33 | 43.31320 | -92.00514 | 34909 ft | 577 kts | 122° |
| 2026-05-05 14:34 | 43.27730 | -91.90680 | 34903 ft | 576 kts | 122° |
| 2026-05-05 14:34 | 43.24117 | -91.80885 | 34901 ft | 575 kts | 122° |
| 2026-05-05 14:35 | 43.20501 | -91.71105 | 34900 ft | 575 kts | 122° |
| 2026-05-05 14:35 | 43.16944 | -91.61286 | 34902 ft | 576 kts | 120° |
| 2026-05-05 14:36 | 43.14138 | -91.52947 | 34902 ft | 575 kts | 120° |
| 2026-05-05 14:36 | 43.10736 | -91.43121 | 34908 ft | 575 kts | 121° |
| 2026-05-05 14:37 | 43.07294 | -91.33247 | 34914 ft | 574 kts | 121° |
| 2026-05-05 14:37 | 43.03865 | -91.23403 | 34918 ft | 573 kts | 121° |
| 2026-05-05 14:38 | 43.00433 | -91.13564 | 34922 ft | 574 kts | 121° |
| 2026-05-05 14:38 | 42.97040 | -91.03700 | 34920 ft | 574 kts | 120° |
| 2026-05-05 14:39 | 42.93600 | -90.93881 | 34917 ft | 573 kts | 121° |
| 2026-05-05 14:39 | 42.90143 | -90.84091 | 34913 ft | 572 kts | 121° |
| 2026-05-05 14:40 | 42.86686 | -90.74318 | 34910 ft | 572 kts | 121° |
| 2026-05-05 14:40 | 42.83240 | -90.64547 | 34905 ft | 572 kts | 120° |
| 2026-05-05 14:41 | 42.79794 | -90.54784 | 34903 ft | 571 kts | 121° |
| 2026-05-05 14:41 | 42.76173 | -90.44676 | 34901 ft | 570 kts | 121° |
| 2026-05-05 14:42 | 42.72692 | -90.34992 | 34901 ft | 570 kts | 121° |
| 2026-05-05 14:42 | 42.69212 | -90.25319 | 34877 ft | 568 kts | 121° |
| 2026-05-05 14:43 | 42.67470 | -90.20529 | 34656 ft | 562 kts | 121° |
| 2026-05-05 14:43 | 42.65748 | -90.15782 | 34342 ft | 560 kts | 121° |
| 2026-05-05 14:43 | 42.64059 | -90.11027 | 34032 ft | 556 kts | 121° |
| 2026-05-05 14:43 | 42.62364 | -90.06342 | 33777 ft | 552 kts | 122° |
| 2026-05-05 14:44 | 42.60658 | -90.01671 | 33450 ft | 549 kts | 122° |
| 2026-05-05 14:44 | 42.58963 | -89.97046 | 33191 ft | 546 kts | 122° |
| 2026-05-05 14:44 | 42.57273 | -89.92446 | 32858 ft | 544 kts | 122° |
| 2026-05-05 14:44 | 42.55613 | -89.87930 | 32586 ft | 541 kts | 122° |
| 2026-05-05 14:45 | 42.53939 | -89.83378 | 32316 ft | 538 kts | 122° |
| 2026-05-05 14:45 | 42.52428 | -89.78733 | 32002 ft | 542 kts | 114° |
| 2026-05-05 14:45 | 42.51393 | -89.73815 | 31819 ft | 541 kts | 108° |
| 2026-05-05 14:45 | 42.50661 | -89.68818 | 31531 ft | 541 kts | 103° |
| 2026-05-05 14:46 | 42.50103 | -89.63772 | 31201 ft | 541 kts | 101° |
| 2026-05-05 14:46 | 42.49547 | -89.58746 | 30913 ft | 539 kts | 102° |
| 2026-05-05 14:46 | 42.48939 | -89.53741 | 30646 ft | 536 kts | 103° |
| 2026-05-05 14:46 | 42.48322 | -89.48783 | 30362 ft | 535 kts | 103° |
| 2026-05-05 14:47 | 42.47704 | -89.43816 | 30110 ft | 532 kts | 103° |
| 2026-05-05 14:47 | 42.47091 | -89.38882 | 29838 ft | 531 kts | 103° |
| 2026-05-05 14:47 | 42.46506 | -89.33954 | 29566 ft | 529 kts | 103° |
| 2026-05-05 14:47 | 42.45902 | -89.29054 | 29329 ft | 526 kts | 103° |
| 2026-05-05 14:48 | 42.45293 | -89.24167 | 29020 ft | 526 kts | 103° |
| 2026-05-05 14:48 | 42.44684 | -89.19297 | 28767 ft | 524 kts | 103° |
| 2026-05-05 14:48 | 42.44077 | -89.14444 | 28529 ft | 522 kts | 103° |
| 2026-05-05 14:48 | 42.43469 | -89.09608 | 28267 ft | 520 kts | 103° |
| 2026-05-05 14:49 | 42.42847 | -89.04790 | 28027 ft | 518 kts | 103° |
| 2026-05-05 14:49 | 42.42253 | -88.99987 | 27795 ft | 517 kts | 103° |
| 2026-05-05 14:49 | 42.41649 | -88.95200 | 27543 ft | 515 kts | 103° |
| 2026-05-05 14:49 | 42.41044 | -88.90421 | 27298 ft | 514 kts | 103° |
| 2026-05-05 14:50 | 42.40447 | -88.85672 | 27086 ft | 512 kts | 103° |
| 2026-05-05 14:50 | 42.39841 | -88.80930 | 26870 ft | 510 kts | 103° |
| 2026-05-05 14:50 | 42.39232 | -88.76219 | 26608 ft | 509 kts | 103° |
| 2026-05-05 14:50 | 42.38628 | -88.71570 | 26156 ft | 507 kts | 103° |
| 2026-05-05 14:51 | 42.38021 | -88.66893 | 25665 ft | 503 kts | 103° |
| 2026-05-05 14:51 | 42.37422 | -88.62249 | 25168 ft | 500 kts | 103° |
| 2026-05-05 14:51 | 42.36817 | -88.57638 | 24669 ft | 496 kts | 103° |
| 2026-05-05 14:51 | 42.36215 | -88.53064 | 24169 ft | 493 kts | 103° |
| 2026-05-05 14:52 | 42.35618 | -88.48520 | 23673 ft | 489 kts | 103° |
| 2026-05-05 14:52 | 42.35007 | -88.44012 | 23172 ft | 485 kts | 106° |
| 2026-05-05 14:52 | 42.33895 | -88.39783 | 22702 ft | 473 kts | 117° |
| 2026-05-05 14:52 | 42.32565 | -88.35741 | 22188 ft | 467 kts | 123° |
| 2026-05-05 14:53 | 42.30878 | -88.32063 | 21701 ft | 454 kts | 133° |
| 2026-05-05 14:53 | 42.28869 | -88.28849 | 21231 ft | 445 kts | 140° |
| 2026-05-05 14:53 | 42.26778 | -88.25799 | 20739 ft | 441 kts | 141° |
| 2026-05-05 14:53 | 42.24697 | -88.22764 | 20252 ft | 439 kts | 140° |
| 2026-05-05 14:54 | 42.22696 | -88.19655 | 19766 ft | 438 kts | 138° |
| 2026-05-05 14:54 | 42.20625 | -88.16719 | 19275 ft | 422 kts | 150° |
| 2026-05-05 14:54 | 42.18217 | -88.14635 | 18813 ft | 406 kts | 161° |
| 2026-05-05 14:54 | 42.15713 | -88.12923 | 18281 ft | 401 kts | 164° |
| 2026-05-05 14:55 | 42.13185 | -88.11410 | 17787 ft | 394 kts | 168° |
| 2026-05-05 14:55 | 42.10649 | -88.10065 | 17303 ft | 390 kts | 169° |
| 2026-05-05 14:55 | 42.08120 | -88.08808 | 16831 ft | 386 kts | 170° |
| 2026-05-05 14:55 | 42.05610 | -88.07557 | 16433 ft | 381 kts | 169° |
| 2026-05-05 14:56 | 42.03190 | -88.06065 | 15999 ft | 389 kts | 159° |
| 2026-05-05 14:56 | 42.01004 | -88.03849 | 15466 ft | 401 kts | 146° |
| 2026-05-05 14:56 | 41.99152 | -88.00972 | 14890 ft | 412 kts | 133° |
| 2026-05-05 14:56 | 41.97750 | -87.97594 | 14416 ft | 414 kts | 119° |
| 2026-05-05 14:57 | 41.96954 | -87.93934 | 14135 ft | 405 kts | 104° |
| 2026-05-05 14:57 | 41.96876 | -87.90246 | 13749 ft | 397 kts | 85° |
| 2026-05-05 14:57 | 41.97592 | -87.86723 | 13357 ft | 386 kts | 65° |
| 2026-05-05 14:57 | 41.99039 | -87.83798 | 12977 ft | 368 kts | 43° |
| 2026-05-05 14:58 | 42.00988 | -87.81760 | 12598 ft | 346 kts | 25° |
| 2026-05-05 14:58 | 42.03085 | -87.80283 | 12254 ft | 336 kts | 19° |
| 2026-05-05 14:58 | 42.05188 | -87.78981 | 11868 ft | 331 kts | 17° |
| 2026-05-05 14:58 | 42.07121 | -87.77284 | 11482 ft | 338 kts | 38° |
| 2026-05-05 14:59 | 42.08508 | -87.74699 | 11109 ft | 345 kts | 60° |
| 2026-05-05 14:59 | 42.09293 | -87.71662 | 10758 ft | 342 kts | 72° |
| 2026-05-05 14:59 | 42.09848 | -87.68562 | 10394 ft | 339 kts | 78° |
| 2026-05-05 14:59 | 42.10172 | -87.65449 | 10056 ft | 330 kts | 83° |
| 2026-05-05 15:00 | 42.10378 | -87.62433 | 9664 ft | 317 kts | 85° |
| 2026-05-05 15:00 | 42.10494 | -87.60460 | 9408 ft | 308 kts | 85° |
| 2026-05-05 15:00 | 42.10278 | -87.56799 | 8831 ft | 290 kts | 110° |
| 2026-05-05 15:00 | 42.09229 | -87.54588 | 8320 ft | 275 kts | 136° |
| 2026-05-05 15:01 | 42.07671 | -87.53233 | 7834 ft | 263 kts | 157° |
| 2026-05-05 15:01 | 42.05949 | -87.52481 | 7313 ft | 257 kts | 171° |
| 2026-05-05 15:01 | 42.04208 | -87.52108 | 6907 ft | 252 kts | 174° |
| 2026-05-05 15:01 | 42.02487 | -87.51821 | 6493 ft | 245 kts | 181° |
| 2026-05-05 15:02 | 42.00980 | -87.52245 | 6137 ft | 231 kts | 209° |
| 2026-05-05 15:02 | 41.99853 | -87.53585 | 6033 ft | 208 kts | 233° |
| 2026-05-05 15:02 | 41.99291 | -87.54884 | 6011 ft | 197 kts | 245° |
| 2026-05-05 15:02 | 41.98857 | -87.56636 | 5979 ft | 191 kts | 258° |
| 2026-05-05 15:03 | 41.98736 | -87.58324 | 5771 ft | 175 kts | 268° |
| 2026-05-05 15:03 | 41.98753 | -87.60075 | 5507 ft | 203 kts | 272° |
| 2026-05-05 15:03 | 41.98800 | -87.62012 | 4960 ft | 212 kts | 273° |
| 2026-05-05 15:03 | 41.98827 | -87.64062 | 4158 ft | 226 kts | 273° |
| 2026-05-05 15:04 | 41.98837 | -87.66144 | 3864 ft | 214 kts | 273° |
| 2026-05-05 15:04 | 41.98840 | -87.68068 | 3648 ft | 200 kts | 274° |
| 2026-05-05 15:04 | 41.98840 | -87.69878 | 3405 ft | 187 kts | 274° |
| 2026-05-05 15:04 | 41.98840 | -87.71565 | 3157 ft | 175 kts | 274° |
| 2026-05-05 15:05 | 41.98839 | -87.74667 | 2738 ft | 159 kts | 275° |
| 2026-05-05 15:05 | 41.98838 | -87.76130 | 2559 ft | 156 kts | 275° |
| 2026-05-05 15:05 | 41.98837 | -87.77568 | 2334 ft | 154 kts | 275° |
| 2026-05-05 15:06 | 41.98837 | -87.79007 | 2128 ft | 154 kts | 274° |
| 2026-05-05 15:06 | 41.98838 | -87.80451 | 1866 ft | 158 kts | 273° |
| 2026-05-05 15:06 | 41.98848 | -87.81924 | 1680 ft | 157 kts | 272° |
| 2026-05-05 15:06 | 41.98836 | -87.83401 | 1474 ft | 159 kts | 271° |
| 2026-05-05 15:07 | 41.98830 | -87.84350 | 1336 ft | 160 kts | 271° |
| 2026-05-05 15:07 | 41.98831 | -87.85846 | 1129 ft | 160 kts | 272° |
| 2026-05-05 15:07 | 41.98828 | -87.87326 | 927 ft | 156 kts | 271° |
| 2026-05-05 15:07 | 41.98832 | -87.88763 | 763 ft | 153 kts | 270° |
| 2026-05-05 15:08 | 41.98826 | -87.90140 | 683 ft | 139 kts | 270° |
| 2026-05-05 15:08 | 41.98831 | -87.91186 | 682 ft | 84 kts | 270° |
| 2026-05-05 15:08 | 41.98833 | -87.91880 | 681 ft | 67 kts | 270° |
| 2026-05-05 15:08 | 41.98833 | -87.92312 | 681 ft | 28 kts | 269° |
| 2026-05-05 15:09 | 41.98917 | -87.92410 | 681 ft | 18 kts | 357° |
| 2026-05-05 15:09 | 41.98992 | -87.92316 | 681 ft | 17 kts | 90° |
| 2026-05-05 15:09 | 41.98992 | -87.92161 | 681 ft | 16 kts | 89° |
| 2026-05-05 15:09 | 41.98993 | -87.92011 | 681 ft | 17 kts | 89° |
| 2026-05-05 15:10 | 41.98993 | -87.91840 | 681 ft | 21 kts | 90° |
| 2026-05-05 15:10 | 41.98993 | -87.91640 | 681 ft | 21 kts | 90° |
| 2026-05-05 15:10 | 41.98993 | -87.91448 | 681 ft | 20 kts | 90° |
| 2026-05-05 15:10 | 41.98994 | -87.91326 | 681 ft | 19 kts | 90° |
| 2026-05-05 15:11 | 41.98995 | -87.91148 | 681 ft | 18 kts | 89° |
| 2026-05-05 15:11 | 41.98996 | -87.90925 | 681 ft | 17 kts | 90° |
| 2026-05-05 15:11 | 41.98996 | -87.90820 | 681 ft | 17 kts | 90° |
| 2026-05-05 15:11 | 41.98996 | -87.90622 | 681 ft | 15 kts | 90° |
| 2026-05-05 15:12 | 41.98996 | -87.90527 | 681 ft | 15 kts | 90° |
| 2026-05-05 15:12 | 41.98996 | -87.90393 | 681 ft | 14 kts | 90° |
| 2026-05-05 15:12 | 41.98996 | -87.90229 | 681 ft | 13 kts | 90° |
| 2026-05-05 15:12 | 41.98996 | -87.90150 | 681 ft | 12 kts | 90° |
| 2026-05-05 15:13 | 41.99056 | -87.90044 | 681 ft | 14 kts | 2° |
| 2026-05-05 15:13 | 41.99162 | -87.90041 | 681 ft | 15 kts | 0° |
| 2026-05-05 15:13 | 41.99227 | -87.90024 | 681 ft | 14 kts | 30° |
| 2026-05-05 15:13 | 41.99303 | -87.89947 | 681 ft | 13 kts | 39° |
| 2026-05-05 15:14 | 41.99372 | -87.89871 | 681 ft | 13 kts | 39° |
| 2026-05-05 15:14 | 41.99439 | -87.89798 | 681 ft | 12 kts | 39° |
| 2026-05-05 15:14 | 41.99500 | -87.89723 | 681 ft | 12 kts | 60° |
| 2026-05-05 15:14 | 41.99512 | -87.89618 | 681 ft | 11 kts | 89° |
| 2026-05-05 15:15 | 41.99512 | -87.89515 | 681 ft | 11 kts | 90° |
| 2026-05-05 15:15 | 41.99512 | -87.89417 | 681 ft | 10 kts | 90° |
| 2026-05-05 15:15 | 41.99512 | -87.89323 | 681 ft | 10 kts | 90° |
| 2026-05-05 15:15 | 41.99511 | -87.89233 | 681 ft | 9 kts | 90° |
| 2026-05-05 15:16 | 41.99511 | -87.89146 | 681 ft | 9 kts | 90° |
| 2026-05-05 15:16 | 41.99511 | -87.89074 | 681 ft | 5 kts | 89° |
| 2026-05-05 15:16 | 41.99493 | -87.89045 | 681 ft | 4 kts | 172° |
| 2026-05-05 15:16 | 41.99463 | -87.89044 | 681 ft | 4 kts | 180° |
| 2026-05-05 15:17 | 41.99434 | -87.89044 | 681 ft | 4 kts | 180° |
| 2026-05-05 15:17 | 41.99422 | -87.89044 | 681 ft | 0 kts | 180° |